Time;durP1;ratioP1;P1;durP2;ratioP2;P2;SDS_P1;SDS_P2;PMS_P1;PMS_P2;Temp;Humidity;BMP_temperature;BMP_pressure;BME280_temperature;BME280_humidity;BME280_pressure;Samples;Min_cycle;Max_cycle;Signal;HPM_P1;HPM_P2
2023/11/29 00:01:57;;;;;;;314.47;304.00;;;0.70;99.90;;;;;;5114998;28;20437;-71
2023/11/29 00:04:24;;;;;;;314.93;304.00;;;0.70;99.90;;;;;;5114482;28;20443;-71
2023/11/29 00:06:51;;;;;;;281.17;271.27;;;0.70;99.90;;;;;;5114664;28;20629;-70
2023/11/29 00:09:19;;;;;;;271.93;262.10;;;0.70;99.90;;;;;;5113436;28;20785;-70
2023/11/29 00:11:46;;;;;;;283.47;273.97;;;0.70;99.90;;;;;;5114645;28;20812;-70
2023/11/29 00:14:13;;;;;;;273.13;263.90;;;0.70;99.90;;;;;;5114444;28;20479;-70
2023/11/29 00:16:40;;;;;;;249.87;241.27;;;0.70;99.90;;;;;;5115161;28;20532;-71
2023/11/29 00:19:07;;;;;;;255.30;246.93;;;0.70;99.90;;;;;;5114382;28;20444;-71
2023/11/29 00:21:40;;;;;;;235.93;227.57;;;0.70;99.90;;;;;;5114327;28;21014;-70
2023/11/29 00:24:07;;;;;;;232.77;224.77;;;0.60;99.90;;;;;;5114489;28;20871;-70
2023/11/29 00:26:35;;;;;;;222.50;214.40;;;0.70;99.90;;;;;;5111917;28;20447;-71
2023/11/29 00:29:02;;;;;;;194.00;186.70;;;0.70;99.90;;;;;;5114039;28;20481;-70
2023/11/29 00:31:30;;;;;;;183.27;176.57;;;0.60;99.90;;;;;;5113985;28;20532;-70
2023/11/29 00:33:56;;;;;;;193.13;186.10;;;0.60;99.90;;;;;;5114071;28;20460;-71
2023/11/29 00:36:24;;;;;;;163.77;157.37;;;0.60;99.90;;;;;;5114428;28;20854;-70
2023/11/29 00:38:51;;;;;;;175.43;169.07;;;0.50;99.90;;;;;;5114165;28;20478;-70
2023/11/29 00:41:18;;;;;;;165.30;159.17;;;0.50;99.90;;;;;;5114095;28;20498;-70
2023/11/29 00:43:46;;;;;;;183.97;177.27;;;0.50;99.90;;;;;;5113612;28;20523;-70
2023/11/29 00:46:13;;;;;;;187.13;180.32;;;0.60;99.90;;;;;;5113128;28;20529;-70
2023/11/29 00:48:40;;;;;;;201.13;194.07;;;0.60;99.90;;;;;;5113584;28;20195;-70
2023/11/29 00:51:07;;;;;;;180.20;173.67;;;0.60;99.90;;;;;;5113993;28;20472;-70
2023/11/29 00:53:34;;;;;;;165.17;159.03;;;0.70;99.90;;;;;;5113711;28;20997;-70
2023/11/29 00:56:01;;;;;;;125.77;120.77;;;0.70;99.90;;;;;;5113651;28;20528;-70
2023/11/29 00:58:28;;;;;;;102.40;98.03;;;0.80;99.90;;;;;;5113708;28;20455;-70
2023/11/29 01:00:56;;;;;;;74.27;70.73;;;0.80;99.90;;;;;;5113216;28;20445;-71
2023/11/29 01:03:23;;;;;;;42.80;40.10;;;0.90;99.90;;;;;;5113588;28;20438;-70
2023/11/29 01:05:52;;;;;;;40.27;37.63;;;1.10;99.90;;;;;;5113229;28;20441;-70
2023/11/29 01:08:24;;;;;;;37.93;35.43;;;1.30;99.90;;;;;;5102790;28;20441;-71
2023/11/29 01:10:52;;;;;;;35.07;32.67;;;1.30;99.90;;;;;;5113703;28;20453;-71
2023/11/29 01:13:19;;;;;;;37.33;35.03;;;1.40;99.90;;;;;;5113066;28;20469;-71
2023/11/29 01:15:46;;;;;;;41.33;38.63;;;1.30;99.90;;;;;;5113788;28;20513;-71
2023/11/29 01:18:14;;;;;;;46.50;43.70;;;1.30;99.90;;;;;;5113335;28;20536;-70
2023/11/29 01:20:41;;;;;;;56.00;52.60;;;1.30;99.90;;;;;;5113557;28;20446;-70
2023/11/29 01:23:08;;;;;;;58.63;55.07;;;1.30;99.90;;;;;;5113254;28;20922;-70
2023/11/29 01:25:35;;;;;;;60.07;56.80;;;1.30;99.90;;;;;;5112960;28;20835;-71
2023/11/29 01:28:03;;;;;;;60.67;57.47;;;1.20;99.90;;;;;;5113297;28;20477;-70
2023/11/29 01:30:30;;;;;;;74.03;70.17;;;1.20;99.90;;;;;;5113078;28;20445;-70
2023/11/29 01:32:57;;;;;;;83.03;79.00;;;1.30;99.90;;;;;;5113040;28;20481;-70
2023/11/29 01:35:25;;;;;;;84.87;81.10;;;1.30;99.90;;;;;;5112878;28;20445;-71
2023/11/29 01:37:52;;;;;;;81.23;77.17;;;1.30;99.90;;;;;;5112949;28;20447;-71
2023/11/29 01:40:20;;;;;;;115.23;110.17;;;1.30;99.90;;;;;;5112694;28;20531;-71
2023/11/29 01:42:47;;;;;;;144.40;138.80;;;1.40;99.90;;;;;;5113066;28;20545;-71
2023/11/29 01:45:14;;;;;;;162.70;156.47;;;1.50;99.90;;;;;;5113177;28;20441;-71
2023/11/29 01:47:41;;;;;;;168.47;161.77;;;1.50;99.90;;;;;;5112646;28;20498;-71
2023/11/29 01:50:09;;;;;;;196.03;188.27;;;1.40;99.90;;;;;;5112757;28;20498;-71
2023/11/29 01:52:38;;;;;;;283.60;273.97;;;1.40;99.90;;;;;;5112566;28;20445;-70
2023/11/29 01:55:08;;;;;;;301.60;291.53;;;1.40;99.90;;;;;;5112356;28;20485;-71
2023/11/29 01:57:36;;;;;;;349.60;337.20;;;1.30;99.90;;;;;;5112489;28;20944;-71
2023/11/29 02:00:03;;;;;;;390.50;376.03;;;1.30;99.90;;;;;;5112485;28;20442;-71
2023/11/29 02:02:30;;;;;;;392.00;378.03;;;1.30;99.90;;;;;;5112641;28;20445;-71
2023/11/29 02:04:57;;;;;;;423.63;408.07;;;1.20;99.90;;;;;;5112437;28;20531;-71
2023/11/29 02:07:27;;;;;;;491.20;472.30;;;1.10;99.90;;;;;;5112416;28;20456;-71
2023/11/29 02:09:57;;;;;;;528.77;507.77;;;1.00;99.90;;;;;;5108718;28;20439;-71
2023/11/29 02:12:24;;;;;;;563.23;539.47;;;0.90;99.90;;;;;;5112790;28;20480;-71
2023/11/29 02:14:51;;;;;;;657.87;627.97;;;0.80;99.90;;;;;;5112176;28;20475;-70
2023/11/29 02:17:18;;;;;;;726.27;692.53;;;0.90;99.90;;;;;;5112094;28;20459;-71
2023/11/29 02:19:45;;;;;;;727.73;693.83;;;0.90;99.90;;;;;;5112262;28;20448;-70
2023/11/29 02:22:12;;;;;;;743.20;707.80;;;0.90;99.90;;;;;;5112161;28;20477;-71
2023/11/29 02:24:42;;;;;;;839.97;795.27;;;0.90;99.90;;;;;;5111870;28;20445;-71
2023/11/29 02:27:11;;;;;;;810.53;768.20;;;1.00;99.90;;;;;;5092165;28;20933;-70
2023/11/29 02:29:38;;;;;;;758.00;720.20;;;1.10;99.90;;;;;;5108963;28;20871;-70
2023/11/29 02:32:06;;;;;;;786.37;745.90;;;1.30;99.90;;;;;;5112210;28;20449;-70
2023/11/29 02:34:35;;;;;;;747.87;711.57;;;1.30;99.90;;;;;;5112398;28;20544;-70
2023/11/29 02:37:02;;;;;;;764.33;726.47;;;1.30;99.90;;;;;;5111331;28;20480;-70
2023/11/29 02:39:29;;;;;;;767.10;729.17;;;1.30;99.90;;;;;;5112265;28;20444;-70
2023/11/29 02:41:56;;;;;;;823.57;779.97;;;1.20;99.90;;;;;;5112275;28;20519;-71
2023/11/29 02:44:25;;;;;;;837.70;792.73;;;1.20;99.90;;;;;;5112204;28;20543;-71
2023/11/29 02:46:51;;;;;;;863.03;815.17;;;1.10;99.90;;;;;;5112114;28;20499;-70
2023/11/29 02:49:19;;;;;;;885.53;835.67;;;1.20;99.90;;;;;;5111807;28;20786;-70
2023/11/29 02:51:46;;;;;;;910.73;857.53;;;1.20;99.90;;;;;;5112222;28;20952;-70
2023/11/29 02:54:13;;;;;;;906.50;853.90;;;1.20;99.90;;;;;;5112552;28;20472;-70
2023/11/29 02:56:40;;;;;;;895.63;844.57;;;1.30;99.90;;;;;;5112258;28;20879;-70
2023/11/29 02:59:07;;;;;;;900.20;848.50;;;1.30;99.90;;;;;;5112337;28;20477;-70
2023/11/29 03:01:35;;;;;;;909.83;857.97;;;1.30;99.90;;;;;;5112420;28;20459;-70
2023/11/29 03:04:02;;;;;;;900.67;849.27;;;1.30;99.90;;;;;;5111505;28;20443;-70
2023/11/29 03:06:29;;;;;;;899.63;847.43;;;1.30;99.90;;;;;;5112137;28;20480;-70
2023/11/29 03:08:56;;;;;;;897.67;845.87;;;1.30;99.90;;;;;;5111918;28;20919;-70
2023/11/29 03:11:23;;;;;;;895.53;843.80;;;1.40;99.90;;;;;;5115038;28;20473;-70
2023/11/29 03:13:50;;;;;;;893.00;841.47;;;1.40;99.90;;;;;;5115700;28;20473;-70
2023/11/29 03:16:17;;;;;;;885.40;835.37;;;1.50;99.90;;;;;;5115577;28;20528;-70
2023/11/29 03:18:45;;;;;;;865.40;815.87;;;1.50;99.90;;;;;;5115368;28;20483;-70
2023/11/29 03:21:12;;;;;;;843.17;796.30;;;1.60;99.90;;;;;;5115697;28;20445;-70
2023/11/29 03:23:39;;;;;;;828.00;782.70;;;1.70;99.90;;;;;;5115596;28;20450;-71
2023/11/29 03:26:06;;;;;;;801.67;758.20;;;1.60;99.90;;;;;;5115103;28;20452;-71
2023/11/29 03:28:33;;;;;;;790.23;749.33;;;1.60;99.90;;;;;;5115305;28;20802;-71
2023/11/29 03:31:00;;;;;;;770.40;731.43;;;1.60;99.90;;;;;;5115253;28;20442;-71
2023/11/29 03:33:27;;;;;;;734.23;698.13;;;1.70;99.90;;;;;;5115432;28;21024;-71
2023/11/29 03:35:57;;;;;;;728.83;693.10;;;1.70;99.90;;;;;;5115102;28;20468;-71
2023/11/29 03:38:24;;;;;;;673.00;641.40;;;1.80;99.90;;;;;;5115108;28;20444;-71
2023/11/29 03:40:51;;;;;;;638.67;608.80;;;1.80;99.90;;;;;;5114668;28;20481;-71
2023/11/29 03:43:17;;;;;;;594.63;568.40;;;1.90;99.90;;;;;;5115389;28;20467;-71
2023/11/29 03:45:44;;;;;;;590.13;564.43;;;2.00;99.90;;;;;;5114958;28;20494;-71
2023/11/29 03:48:11;;;;;;;550.27;526.87;;;1.90;99.90;;;;;;5115339;28;20497;-71
2023/11/29 03:50:38;;;;;;;531.70;510.17;;;2.00;99.90;;;;;;5115145;28;20519;-71
2023/11/29 03:53:06;;;;;;;469.70;451.10;;;2.00;99.90;;;;;;5115011;28;20448;-71
2023/11/29 03:55:33;;;;;;;454.23;436.67;;;2.10;99.90;;;;;;5114614;28;21071;-71
2023/11/29 03:58:00;;;;;;;377.73;363.93;;;2.10;99.90;;;;;;5114867;28;20450;-71
2023/11/29 04:00:27;;;;;;;349.50;336.83;;;2.20;99.90;;;;;;5114702;28;20535;-71
2023/11/29 04:02:54;;;;;;;332.80;320.73;;;2.10;99.90;;;;;;5114796;28;20439;-71
2023/11/29 04:05:23;;;;;;;334.50;321.87;;;2.10;99.90;;;;;;5114610;28;20528;-71
2023/11/29 04:07:50;;;;;;;339.63;327.70;;;2.10;99.90;;;;;;5114454;28;20458;-71
2023/11/29 04:10:18;;;;;;;329.30;317.80;;;2.10;99.90;;;;;;5113979;28;20441;-71
2023/11/29 04:12:45;;;;;;;328.90;317.37;;;2.10;99.90;;;;;;5114915;28;20479;-71
2023/11/29 04:15:12;;;;;;;341.23;328.93;;;2.10;99.90;;;;;;5114396;28;20566;-71
2023/11/29 04:17:39;;;;;;;345.93;333.83;;;2.10;99.90;;;;;;5114487;28;20523;-71
2023/11/29 04:20:07;;;;;;;358.63;345.90;;;2.10;99.90;;;;;;5114429;28;20448;-71
2023/11/29 04:22:37;;;;;;;357.50;345.00;;;2.20;99.90;;;;;;5114112;28;20805;-71
2023/11/29 04:25:06;;;;;;;374.83;361.23;;;2.20;99.90;;;;;;5114018;28;20449;-71
2023/11/29 04:27:34;;;;;;;379.87;366.13;;;2.20;99.90;;;;;;5114565;28;20491;-71
2023/11/29 04:30:02;;;;;;;391.17;376.87;;;2.20;99.90;;;;;;5113971;28;20748;-71
2023/11/29 04:32:29;;;;;;;412.07;396.47;;;2.20;99.90;;;;;;5114701;28;20696;-71
2023/11/29 04:34:56;;;;;;;424.00;408.03;;;2.20;99.90;;;;;;5113940;28;20966;-71
2023/11/29 04:37:23;;;;;;;422.67;407.07;;;2.20;99.90;;;;;;5114068;28;20999;-71
2023/11/29 04:39:50;;;;;;;437.73;420.60;;;2.30;99.90;;;;;;5113989;28;20481;-72
2023/11/29 04:42:17;;;;;;;432.47;416.07;;;2.30;99.90;;;;;;5113987;28;20625;-72
2023/11/29 04:44:46;;;;;;;423.07;407.07;;;2.30;99.90;;;;;;5114000;28;20925;-72
2023/11/29 04:47:14;;;;;;;459.53;441.57;;;2.40;99.90;;;;;;5113853;28;20855;-74
2023/11/29 04:49:42;;;;;;;472.90;454.43;;;2.40;99.90;;;;;;5113771;28;20855;-75
2023/11/29 04:52:08;;;;;;;485.80;467.07;;;2.40;99.90;;;;;;5113649;28;20477;-76
2023/11/29 04:54:35;;;;;;;519.73;499.23;;;2.30;99.90;;;;;;5113373;28;20470;-77
2023/11/29 04:57:02;;;;;;;498.13;478.43;;;2.30;99.90;;;;;;5113432;28;20532;-77
2023/11/29 04:59:30;;;;;;;556.70;533.83;;;2.30;99.90;;;;;;5113204;28;20448;-76
2023/11/29 05:01:59;;;;;;;628.00;602.00;;;2.20;99.90;;;;;;5113297;28;20447;-77
2023/11/29 05:04:26;;;;;;;669.00;641.80;;;2.10;99.90;;;;;;5113387;28;20867;-77
2023/11/29 05:06:52;;;;;;;776.67;742.00;;;1.90;99.90;;;;;;5113047;28;20534;-77
2023/11/29 05:09:19;;;;;;;819.53;780.03;;;1.90;99.90;;;;;;5113529;28;20476;-78
2023/11/29 05:11:46;;;;;;;834.90;792.80;;;1.90;99.90;;;;;;5113484;28;20980;-78
2023/11/29 05:14:14;;;;;;;891.43;841.67;;;1.90;99.90;;;;;;5113112;28;20982;-78
2023/11/29 05:16:40;;;;;;;907.53;852.40;;;1.90;99.90;;;;;;5112456;28;20442;-79
2023/11/29 05:19:09;;;;;;;902.87;847.13;;;1.80;99.90;;;;;;5113447;28;20444;-78
2023/11/29 05:21:36;;;;;;;899.47;838.80;;;1.90;99.90;;;;;;5113779;28;20446;-78
2023/11/29 05:24:03;;;;;;;905.67;843.40;;;1.90;99.90;;;;;;5113603;28;20490;-78
2023/11/29 05:26:30;;;;;;;905.83;842.53;;;1.80;99.90;;;;;;5113508;28;20446;-78
2023/11/29 05:28:57;;;;;;;904.93;843.43;;;1.80;99.90;;;;;;5113079;28;20450;-78
2023/11/29 05:31:24;;;;;;;904.43;838.80;;;1.80;99.90;;;;;;5113741;28;20532;-78
2023/11/29 05:33:52;;;;;;;911.43;843.53;;;1.80;99.90;;;;;;5112229;28;20529;-78
2023/11/29 05:36:21;;;;;;;913.63;844.63;;;1.80;99.90;;;;;;5113233;28;21059;-78
2023/11/29 05:38:48;;;;;;;915.00;846.33;;;1.90;99.90;;;;;;5113406;28;20454;-77
2023/11/29 05:41:15;;;;;;;905.17;839.27;;;1.90;99.90;;;;;;5113355;28;20880;-78
2023/11/29 05:43:42;;;;;;;908.10;844.30;;;2.00;99.90;;;;;;5094882;28;20788;-78
2023/11/29 05:46:09;;;;;;;903.23;842.13;;;2.10;99.90;;;;;;5112982;28;20480;-78
2023/11/29 05:48:36;;;;;;;904.33;844.47;;;2.00;99.90;;;;;;5113068;28;20450;-77
2023/11/29 05:51:04;;;;;;;909.23;847.87;;;2.10;99.90;;;;;;5113213;28;20450;-78
2023/11/29 05:53:33;;;;;;;897.07;839.27;;;2.10;99.90;;;;;;5113492;28;20455;-78
2023/11/29 05:56:00;;;;;;;896.63;840.60;;;2.20;99.90;;;;;;5112931;28;20468;-78
2023/11/29 05:58:27;;;;;;;892.63;838.30;;;2.20;99.90;;;;;;5113343;28;20881;-78
2023/11/29 06:00:54;;;;;;;885.23;832.67;;;2.20;99.90;;;;;;5113236;28;20449;-78
2023/11/29 06:03:25;;;;;;;877.73;825.87;;;2.30;99.90;;;;;;5112950;28;20448;-78
2023/11/29 06:05:52;;;;;;;866.73;817.63;;;2.30;99.90;;;;;;5112624;28;20495;-78
2023/11/29 06:08:19;;;;;;;848.67;801.40;;;2.40;99.90;;;;;;5112498;28;20441;-78
2023/11/29 06:10:48;;;;;;;860.37;812.27;;;2.40;99.90;;;;;;5112340;28;20447;-78
2023/11/29 06:13:17;;;;;;;870.47;822.60;;;2.40;99.90;;;;;;5112793;28;20640;-78
2023/11/29 06:15:44;;;;;;;873.50;825.10;;;2.30;99.90;;;;;;5112245;28;20532;-78
2023/11/29 06:18:11;;;;;;;888.03;837.83;;;2.30;99.90;;;;;;5112253;28;20522;-78
2023/11/29 06:20:39;;;;;;;883.17;833.40;;;2.40;99.90;;;;;;5112674;28;20868;-78
2023/11/29 06:23:07;;;;;;;883.93;834.00;;;2.30;99.90;;;;;;5112505;28;20535;-78
2023/11/29 06:25:34;;;;;;;895.17;844.20;;;2.30;99.90;;;;;;5112383;28;20943;-78
2023/11/29 06:28:03;;;;;;;894.33;843.57;;;2.30;99.90;;;;;;5112093;28;20879;-78
2023/11/29 06:30:31;;;;;;;894.37;843.50;;;2.30;99.90;;;;;;5112492;28;20499;-78
2023/11/29 06:32:58;;;;;;;899.10;846.37;;;2.20;99.90;;;;;;5112443;28;20445;-78
2023/11/29 06:35:25;;;;;;;900.90;848.03;;;2.20;99.90;;;;;;5112304;28;20479;-78
2023/11/29 06:37:52;;;;;;;911.53;859.10;;;2.10;99.90;;;;;;5112277;28;20527;-78
2023/11/29 06:40:19;;;;;;;911.03;856.57;;;2.00;99.90;;;;;;5111998;28;20533;-78
2023/11/29 06:42:47;;;;;;;909.73;853.13;;;1.90;99.90;;;;;;5111317;28;20555;-78
2023/11/29 06:45:17;;;;;;;912.97;855.10;;;1.80;99.90;;;;;;5114990;28;20436;-78
2023/11/29 06:47:45;;;;;;;914.40;853.80;;;1.80;99.90;;;;;;5116554;28;20448;-78
2023/11/29 06:50:13;;;;;;;899.40;838.43;;;1.80;99.90;;;;;;5116212;28;20476;-78
2023/11/29 06:52:40;;;;;;;897.23;835.20;;;1.80;99.90;;;;;;5116132;28;20811;-78
2023/11/29 06:55:08;;;;;;;901.10;838.50;;;1.90;99.90;;;;;;5116034;28;20517;-78
2023/11/29 06:57:35;;;;;;;897.30;833.13;;;1.90;99.90;;;;;;5115351;28;20443;-78
2023/11/29 07:00:04;;;;;;;899.70;836.30;;;2.00;99.90;;;;;;5114326;28;20515;-78
2023/11/29 07:02:32;;;;;;;900.23;838.93;;;2.10;99.90;;;;;;5115206;28;20841;-78
2023/11/29 07:04:59;;;;;;;905.87;846.17;;;2.10;99.90;;;;;;5114527;28;20450;-78
2023/11/29 07:07:26;;;;;;;908.80;846.43;;;2.10;99.90;;;;;;5115597;28;20454;-78
2023/11/29 07:09:54;;;;;;;924.60;861.17;;;2.10;99.90;;;;;;5112338;28;20446;-78
2023/11/29 07:12:20;;;;;;;934.73;871.73;;;2.10;99.90;;;;;;5114983;28;20447;-78
2023/11/29 07:14:47;;;;;;;930.80;867.10;;;2.00;99.90;;;;;;5115293;28;20528;-78
2023/11/29 07:17:15;;;;;;;935.63;872.20;;;2.10;99.90;;;;;;5114662;28;20807;-78
2023/11/29 07:19:43;;;;;;;926.50;863.57;;;2.10;99.90;;;;;;5115008;28;20446;-78
2023/11/29 07:22:10;;;;;;;913.27;852.63;;;2.20;99.90;;;;;;5114714;28;20511;-78
2023/11/29 07:24:37;;;;;;;912.30;849.37;;;2.30;99.90;;;;;;5114819;28;20448;-78
2023/11/29 07:27:04;;;;;;;906.90;847.23;;;2.30;99.90;;;;;;5115313;28;20528;-78
2023/11/29 07:29:31;;;;;;;907.37;849.33;;;2.40;99.90;;;;;;5114268;28;20529;-78
2023/11/29 07:31:58;;;;;;;903.17;846.37;;;2.40;99.90;;;;;;5113049;28;20444;-78
2023/11/29 07:34:25;;;;;;;916.30;859.07;;;2.50;99.90;;;;;;5114626;28;20540;-78
2023/11/29 07:36:53;;;;;;;901.10;847.33;;;2.60;99.90;;;;;;5115132;28;20517;-78
2023/11/29 07:39:20;;;;;;;896.20;843.80;;;2.60;99.90;;;;;;5115123;28;20441;-78
2023/11/29 07:41:48;;;;;;;890.47;838.03;;;2.70;99.90;;;;;;5114838;28;20523;-79
2023/11/29 07:44:15;;;;;;;893.23;840.60;;;2.60;99.90;;;;;;5115077;28;20444;-78
2023/11/29 07:46:42;;;;;;;895.43;842.97;;;2.60;99.90;;;;;;5114895;28;20440;-78
2023/11/29 07:49:12;;;;;;;890.37;838.83;;;2.60;99.90;;;;;;5115202;28;20455;-78
2023/11/29 07:51:39;;;;;;;888.60;837.83;;;2.60;99.90;;;;;;5114753;28;20451;-78
2023/11/29 07:54:07;;;;;;;891.03;839.50;;;2.60;99.90;;;;;;5115044;28;20883;-78
2023/11/29 07:56:34;;;;;;;887.97;838.67;;;2.60;99.90;;;;;;5113352;28;20551;-79
2023/11/29 07:59:01;;;;;;;890.20;840.27;;;2.60;99.90;;;;;;5114686;28;20472;-78
2023/11/29 08:01:28;;;;;;;885.90;835.63;;;2.60;99.90;;;;;;5114559;28;20442;-78
2023/11/29 08:03:55;;;;;;;885.60;835.97;;;2.70;99.90;;;;;;5113343;28;20455;-79
2023/11/29 08:06:22;;;;;;;891.50;839.13;;;2.70;99.90;;;;;;5113288;28;20571;-79
2023/11/29 08:08:49;;;;;;;887.30;837.43;;;2.70;99.90;;;;;;5113825;28;20816;-79
2023/11/29 08:11:18;;;;;;;889.20;839.47;;;2.80;99.90;;;;;;5113996;28;20888;-79
2023/11/29 08:13:45;;;;;;;886.13;836.47;;;2.80;99.90;;;;;;5112115;28;20498;-78
2023/11/29 08:16:12;;;;;;;886.43;837.57;;;2.80;99.90;;;;;;5113328;28;20478;-78
2023/11/29 08:18:38;;;;;;;880.67;832.37;;;2.90;99.90;;;;;;5113200;28;20497;-78
2023/11/29 08:21:06;;;;;;;865.40;819.90;;;2.90;99.90;;;;;;5113922;28;20445;-79
2023/11/29 08:23:33;;;;;;;876.07;828.87;;;2.90;99.90;;;;;;5113678;28;20534;-79
2023/11/29 08:26:00;;;;;;;865.60;819.57;;;2.90;99.90;;;;;;5113488;28;20482;-79
2023/11/29 08:28:28;;;;;;;875.40;827.77;;;3.00;99.90;;;;;;5112774;28;20446;-79
2023/11/29 08:30:55;;;;;;;875.43;827.50;;;3.00;99.90;;;;;;5113916;28;20443;-78
2023/11/29 08:33:22;;;;;;;872.63;826.10;;;3.00;99.90;;;;;;5113587;28;20496;-79
2023/11/29 08:35:49;;;;;;;883.77;836.37;;;3.10;99.90;;;;;;5113602;28;20858;-79
2023/11/29 08:38:16;;;;;;;877.63;830.27;;;3.10;99.90;;;;;;5114339;28;20510;-79
2023/11/29 08:40:46;;;;;;;874.97;829.37;;;3.20;99.90;;;;;;5113833;28;20438;-78
2023/11/29 08:43:13;;;;;;;866.20;821.87;;;3.20;99.90;;;;;;5114010;28;20451;-79
2023/11/29 08:45:41;;;;;;;861.17;817.40;;;3.20;99.90;;;;;;5114169;28;20850;-79
2023/11/29 08:48:08;;;;;;;856.30;814.83;;;3.20;99.90;;;;;;5113002;28;20536;-78
2023/11/29 08:50:35;;;;;;;845.03;804.30;;;3.20;99.90;;;;;;5112894;28;20480;-78
2023/11/29 08:53:02;;;;;;;835.30;796.23;;;3.30;99.90;;;;;;5113728;28;20440;-78
2023/11/29 08:55:29;;;;;;;819.37;782.00;;;3.30;99.90;;;;;;5113306;28;20535;-78
2023/11/29 08:57:55;;;;;;;787.80;753.60;;;3.30;99.90;;;;;;5113887;28;20936;-78
2023/11/29 09:00:25;;;;;;;746.53;715.73;;;3.40;99.90;;;;;;5113746;28;20458;-78
2023/11/29 09:02:55;;;;;;;716.10;687.63;;;3.50;99.90;;;;;;5113332;28;20476;-79
2023/11/29 09:05:23;;;;;;;662.33;637.03;;;3.70;99.90;;;;;;5113823;28;20512;-75
2023/11/29 09:07:49;;;;;;;611.77;589.47;;;3.80;99.90;;;;;;5112579;28;20547;-75
2023/11/29 09:10:16;;;;;;;593.80;572.73;;;3.70;99.90;;;;;;5113456;28;20450;-75
2023/11/29 09:12:45;;;;;;;590.00;569.03;;;3.70;99.90;;;;;;5113667;28;20505;-75
2023/11/29 09:15:12;;;;;;;394.15;380.90;;;3.60;99.90;;;;;;5112670;28;20482;-75
2023/11/29 09:17:40;;;;;;;415.97;401.93;;;3.60;99.90;;;;;;5113524;28;20609;-76
2023/11/29 09:20:10;;;;;;;482.07;465.90;;;3.60;99.90;;;;;;5113331;28;21385;-75
2023/11/29 09:22:37;;;;;;;467.90;452.10;;;3.60;99.90;;;;;;5111893;28;20456;-76
2023/11/29 09:25:07;;;;;;;428.17;413.20;;;3.70;99.90;;;;;;5111739;28;20450;-76
2023/11/29 09:27:34;;;;;;;402.93;389.53;;;3.80;99.90;;;;;;5114023;28;20282;-81
2023/11/29 09:30:01;;;;;;;384.43;371.50;;;4.00;99.90;;;;;;5114235;28;20445;-80
2023/11/29 09:32:28;;;;;;;333.43;322.20;;;4.10;99.90;;;;;;5113867;28;20505;-80
2023/11/29 09:34:55;;;;;;;317.73;307.23;;;4.10;99.90;;;;;;5114041;28;20444;-81
2023/11/29 09:37:23;;;;;;;283.60;274.23;;;4.10;99.90;;;;;;5113964;28;20472;-80
2023/11/29 09:39:50;;;;;;;307.90;297.20;;;4.20;99.90;;;;;;5113979;28;20444;-80
2023/11/29 09:42:20;;;;;;;302.03;291.90;;;4.30;99.90;;;;;;5113545;28;20449;-79
2023/11/29 09:44:48;;;;;;;328.67;317.90;;;4.40;99.90;;;;;;5113499;28;21005;-79
2023/11/29 09:47:15;;;;;;;275.73;266.43;;;4.40;99.90;;;;;;5113474;28;20520;-80
2023/11/29 09:49:43;;;;;;;264.43;255.17;;;4.20;99.90;;;;;;5113816;28;20456;-82
2023/11/29 09:52:11;;;;;;;262.77;254.30;;;4.00;99.90;;;;;;5113581;28;20448;-82
2023/11/29 09:54:40;;;;;;;371.67;360.07;;;3.70;99.90;;;;;;5113575;28;20970;-82
2023/11/29 09:57:07;;;;;;;415.40;403.03;;;3.60;99.90;;;;;;5113230;28;20475;-81
2023/11/29 09:59:33;;;;;;;449.40;436.20;;;3.50;99.90;;;;;;5113273;28;20973;-81
2023/11/29 10:02:05;;;;;;;513.70;498.47;;;3.50;99.90;;;;;;5113154;28;20984;-80
2023/11/29 10:04:36;;;;;;;605.23;585.77;;;3.40;99.90;;;;;;5113530;28;20444;-80
2023/11/29 10:07:03;;;;;;;642.27;621.40;;;3.50;99.90;;;;;;5113268;28;20452;-80
2023/11/29 10:09:30;;;;;;;668.20;646.03;;;3.50;99.90;;;;;;5113122;28;20454;-80
2023/11/29 10:11:58;;;;;;;672.20;649.50;;;3.60;99.90;;;;;;5113150;28;21033;-80
2023/11/29 10:14:25;;;;;;;689.67;665.90;;;3.60;99.90;;;;;;5112971;28;20455;-80
2023/11/29 10:16:53;;;;;;;699.00;674.60;;;3.50;99.90;;;;;;5113287;28;20482;-80
2023/11/29 10:19:22;;;;;;;702.00;677.53;;;3.50;99.90;;;;;;5113077;28;20793;-80
2023/11/29 10:21:51;;;;;;;704.33;679.60;;;3.70;99.90;;;;;;5113146;28;20449;-80
2023/11/29 10:24:25;;;;;;;695.07;670.97;;;3.80;99.90;;;;;;5113084;28;20484;-80
2023/11/29 10:26:52;;;;;;;751.47;722.80;;;4.00;99.90;;;;;;5113044;28;20792;-80
2023/11/29 10:29:20;;;;;;;711.00;685.40;;;4.10;99.90;;;;;;5113029;28;20489;-80
2023/11/29 10:31:48;;;;;;;664.47;642.27;;;4.10;99.90;;;;;;5113086;28;20924;-80
2023/11/29 10:34:18;;;;;;;677.67;653.90;;;4.00;99.90;;;;;;5113339;28;20485;-80
2023/11/29 10:36:46;;;;;;;612.27;592.67;;;4.00;99.90;;;;;;5113044;28;20483;-80
2023/11/29 10:39:18;;;;;;;626.47;605.97;;;3.90;99.90;;;;;;5112895;28;20445;-80
2023/11/29 10:41:51;;;;;;;613.07;593.47;;;3.90;99.90;;;;;;5113185;28;20490;-80
2023/11/29 10:44:22;;;;;;;603.63;583.93;;;3.90;99.90;;;;;;5113439;28;20844;-80
2023/11/29 10:46:51;;;;;;;598.20;579.03;;;3.90;99.90;;;;;;5113214;28;20452;-80
2023/11/29 10:49:22;;;;;;;504.27;488.63;;;4.00;99.90;;;;;;5112863;28;20539;-80
2023/11/29 10:51:49;;;;;;;561.30;543.60;;;3.90;99.90;;;;;;5112815;28;20445;-80
2023/11/29 10:54:18;;;;;;;519.10;503.07;;;3.90;99.90;;;;;;5113062;28;20445;-80
2023/11/29 10:56:46;;;;;;;477.87;463.43;;;3.90;99.90;;;;;;5113060;28;20683;-79
2023/11/29 10:59:23;;;;;;;498.37;483.50;;;3.80;99.90;;;;;;5112947;28;20531;-79
2023/11/29 11:01:55;;;;;;;540.50;523.37;;;3.80;99.90;;;;;;5112519;28;20986;-79
2023/11/29 11:04:22;;;;;;;573.73;555.47;;;3.80;99.90;;;;;;5112028;28;20847;-79
2023/11/29 11:06:50;;;;;;;611.10;590.90;;;3.80;99.90;;;;;;5112252;28;20517;-79
2023/11/29 11:09:32;;;;;;;631.53;610.43;;;3.80;99.90;;;;;;5112815;28;20447;-79
2023/11/29 11:11:59;;;;;;;655.37;632.93;;;3.80;99.90;;;;;;5112401;28;20444;-79
2023/11/29 11:14:32;;;;;;;657.63;635.00;;;3.70;99.90;;;;;;5112356;28;20457;-79
2023/11/29 11:17:09;;;;;;;670.90;647.80;;;3.70;99.90;;;;;;5112311;28;20464;-79
2023/11/29 11:19:37;;;;;;;731.10;704.00;;;3.80;99.90;;;;;;5112835;28;20460;-79
2023/11/29 11:22:09;;;;;;;736.77;708.77;;;4.00;99.90;;;;;;5112763;28;20531;-79
2023/11/29 11:25:05;;;;;;;675.10;651.47;;;4.00;99.90;;;;;;5112565;28;20452;-79
2023/11/29 11:27:34;;;;;;;655.15;632.60;;;4.10;99.90;;;;;;5112751;28;20496;-80
2023/11/29 11:30:18;;;;;;;656.20;633.20;;;4.10;99.90;;;;;;5112315;28;20195;-80
2023/11/29 11:32:51;;;;;;;617.73;597.10;;;4.20;99.90;;;;;;5112584;28;20445;-80
2023/11/29 11:35:25;;;;;;;459.60;445.33;;;4.20;99.90;;;;;;5115987;28;20451;-80
2023/11/29 11:37:54;;;;;;;515.00;498.63;;;4.10;99.90;;;;;;5115768;28;20479;-80
2023/11/29 11:40:21;;;;;;;473.17;458.20;;;4.10;99.90;;;;;;5115840;28;20481;-80
2023/11/29 11:42:48;;;;;;;452.10;437.87;;;4.10;99.90;;;;;;5115651;27;20476;-80
2023/11/29 11:45:16;;;;;;;446.53;432.77;;;4.10;99.90;;;;;;5115752;28;20455;-81
2023/11/29 11:47:43;;;;;;;449.13;435.20;;;4.20;99.90;;;;;;5115299;28;20450;-80
2023/11/29 11:50:16;;;;;;;455.30;440.00;;;4.10;99.90;;;;;;5115168;28;20448;-80
2023/11/29 11:52:43;;;;;;;488.33;472.80;;;4.10;99.90;;;;;;5115561;28;20436;-80
2023/11/29 11:55:12;;;;;;;490.23;474.07;;;4.20;99.90;;;;;;5115337;28;20536;-80
2023/11/29 11:57:40;;;;;;;463.90;448.87;;;4.20;99.90;;;;;;5115295;28;20485;-80
2023/11/29 12:00:09;;;;;;;419.37;405.67;;;4.20;99.90;;;;;;5115196;28;20928;-80
2023/11/29 12:02:37;;;;;;;380.80;368.27;;;4.20;99.90;;;;;;5114942;28;20447;-80
2023/11/29 12:05:05;;;;;;;383.37;370.87;;;4.20;99.90;;;;;;5114951;28;20528;-80
2023/11/29 12:07:33;;;;;;;413.87;399.87;;;4.20;99.90;;;;;;5115226;28;20480;-80
2023/11/29 12:10:00;;;;;;;413.70;400.00;;;4.30;99.90;;;;;;5115045;28;20444;-79
2023/11/29 12:12:29;;;;;;;377.20;364.80;;;4.30;99.90;;;;;;5115196;28;20862;-79
2023/11/29 12:14:56;;;;;;;406.27;392.67;;;4.30;99.90;;;;;;5115370;28;20456;-79
2023/11/29 12:17:23;;;;;;;422.33;408.20;;;4.30;99.90;;;;;;5114729;28;20543;-79
2023/11/29 12:19:51;;;;;;;405.90;392.40;;;4.30;99.90;;;;;;5115159;28;20475;-78
2023/11/29 12:22:18;;;;;;;418.63;404.40;;;4.30;99.90;;;;;;5115435;28;20924;-78